Nearby METAR Reports

 

LIEA - Alghero, Italia
Updated: 23/02/2020 04:20
Clear
Clear
 Wind from varies
Wind: varies 2 km/h
Temperature: 4°C
Dew Point: 3°C
Humidity: 93%
Barometer: 1032 hPa
Summary: Clear
Visibility: greater than 10 km
2020/02/23 03:20 LIEA 230320Z VRB01KT CAVOK 04/03 Q1032
LIEO - Olbia, Italia
Updated: 21/02/2020 10:50
NOT Current
Partly cloudy
Partly cloudy
 Wind from W
Wind: W 17 km/h
Temperature: 15°C
Dew Point: 9°C
Humidity: 68%
Barometer: 1022 hPa
Clouds: Partly cloudy
Visibility: 10 km
Cloud details: Partly cloudy 610 m
2020/02/21 09:50 LIEO 210950Z 27009KT 9999 SCT020 15/09 Q1022
 
LIEE - Cagliari, Italia
Updated: 23/02/2020 04:20
Partly cloudy
Partly cloudy
 Wind from NNW
Wind: NNW 7 km/h
Temperature: 6°C
Wind Chill: 4°C
Dew Point: 6°C
Humidity: 100%
Barometer: 1033 hPa
Clouds: Partly cloudy
Visibility: 6 km
2020/02/23 03:20 LIEE 230320Z 33004KT 6000 NSC 06/06 Q1033